Time;durP1;ratioP1;P1;durP2;ratioP2;P2;SDS_P1;SDS_P2;PMS_P1;PMS_P2;Temp;Humidity;BMP_temperature;BMP_pressure;BME280_temperature;BME280_humidity;BME280_pressure;Samples;Min_cycle;Max_cycle;Signal;HPM_P1;HPM_P2
2021/01/20 00:04:07;;;;;;;323.63;66.20;;;;;;;-0.15;100.00;99697.94;10408564;28;20181;-71
2021/01/20 00:09:08;;;;;;;308.23;63.33;;;;;;;-0.11;100.00;99706.53;10401335;28;21027;-70
2021/01/20 00:14:12;;;;;;;390.87;73.00;;;;;;;-0.08;100.00;99711.69;10392531;28;20168;-68
2021/01/20 00:19:13;;;;;;;347.97;63.43;;;;;;;-0.06;100.00;99700.25;10406791;28;20211;-67
2021/01/20 00:24:14;;;;;;;341.17;65.93;;;;;;;-0.05;100.00;99696.75;10407110;28;20188;-68
2021/01/20 00:29:15;;;;;;;342.87;67.90;;;;;;;-0.01;100.00;99698.38;10407876;28;20560;-61
2021/01/20 00:34:15;;;;;;;317.07;63.13;;;;;;;0.01;100.00;99700.91;10392173;28;20177;-66
2021/01/20 00:39:17;;;;;;;313.57;56.50;;;;;;;0.05;100.00;99702.53;10400229;28;20251;-65
2021/01/20 00:44:17;;;;;;;342.67;64.00;;;;;;;0.07;100.00;99695.50;10406727;28;20185;-57
2021/01/20 00:49:18;;;;;;;322.20;61.37;;;;;;;0.10;100.00;99698.03;10406106;28;20185;-61
2021/01/20 00:54:18;;;;;;;282.60;56.73;;;;;;;0.11;100.00;99689.25;10398534;28;20215;-67
2021/01/20 00:59:19;;;;;;;299.00;60.67;;;;;;;0.13;100.00;99679.53;10391569;28;20249;-67
2021/01/20 01:04:19;;;;;;;277.23;54.90;;;;;;;0.14;100.00;99676.03;10405979;28;20285;-66
2021/01/20 01:09:20;;;;;;;315.03;61.47;;;;;;;0.15;100.00;99669.88;10411900;28;20586;-64
2021/01/20 01:14:20;;;;;;;291.17;56.20;;;;;;;0.15;100.00;99682.97;10414181;28;20168;-61
2021/01/20 01:19:20;;;;;;;252.40;52.87;;;;;;;0.16;100.00;99686.47;10398067;28;20233;-63
2021/01/20 01:24:21;;;;;;;281.00;51.70;;;;;;;0.17;100.00;99678.56;10406692;28;20226;-61
2021/01/20 01:29:21;;;;;;;255.43;50.33;;;;;;;0.16;100.00;99668.09;10413098;28;20246;-55
2021/01/20 01:34:22;;;;;;;261.97;53.70;;;;;;;0.17;100.00;99654.94;10412775;28;20179;-54
2021/01/20 01:39:24;;;;;;;261.77;49.30;;;;;;;0.19;100.00;99653.13;10405523;28;20204;-59
2021/01/20 01:44:24;;;;;;;249.67;48.23;;;;;;;0.16;100.00;99652.38;10380162;28;20678;-55
2021/01/20 01:49:25;;;;;;;260.50;49.37;;;;;;;0.14;100.00;99649.78;10412869;28;20177;-54
2021/01/20 01:54:27;;;;;;;227.23;44.83;;;;;;;0.14;100.00;99652.41;10395188;28;20645;-55
2021/01/20 01:59:29;;;;;;;219.57;44.10;;;;;;;0.13;100.00;99655.06;10412075;28;20247;-61
2021/01/20 02:04:30;;;;;;;221.97;44.73;;;;;;;0.14;100.00;99659.41;10395920;28;20710;-60
2021/01/20 02:09:30;;;;;;;203.77;41.47;;;;;;;0.14;100.00;99659.41;10405150;28;20185;-61
2021/01/20 02:14:34;;;;;;;193.80;41.37;;;;;;;0.13;100.00;99663.81;10378157;28;20168;-62
2021/01/20 02:20:24;;;;;;;243.80;44.77;;;;;;;0.07;100.00;99653.53;10410985;28;20236;-57
2021/01/20 02:26:01;;;;;;;221.10;41.60;;;;;;;0.11;100.00;99651.69;10356422;28;20340;-62
2021/01/20 02:31:02;;;;;;;204.67;40.70;;;;;;;0.10;100.00;99652.56;10400837;28;20456;-60
2021/01/20 02:36:04;;;;;;;222.00;40.00;;;;;;;0.09;100.00;99662.22;10410955;28;20177;-55
2021/01/20 02:41:05;;;;;;;209.17;39.60;;;;;;;0.09;100.00;99651.72;10410552;28;20258;-56
2021/01/20 02:46:05;;;;;;;168.83;36.77;;;;;;;0.09;100.00;99654.34;10406083;28;20603;-58
2021/01/20 02:51:08;;;;;;;187.77;35.03;;;;;;;0.07;100.00;99657.91;10394472;28;20184;-60
2021/01/20 02:56:10;;;;;;;178.17;37.33;;;;;;;0.06;100.00;99657.06;10389417;28;20223;-60
2021/01/20 03:01:11;;;;;;;185.53;37.00;;;;;;;0.06;100.00;99649.19;10408875;28;20610;-64
2021/01/20 03:06:12;;;;;;;195.77;38.10;;;;;;;0.04;100.00;99643.13;10391415;28;20177;-58
2021/01/20 03:11:13;;;;;;;169.53;34.03;;;;;;;-0.04;100.00;99630.28;10395882;28;20211;-61
2021/01/20 03:16:19;;;;;;;177.50;34.07;;;;;;;0.03;100.00;99646.66;10399770;28;20668;-54
2021/01/20 03:21:19;;;;;;;198.43;37.13;;;;;;;0.03;100.00;99644.03;10407972;28;20636;-67
2021/01/20 03:26:20;;;;;;;198.03;35.53;;;;;;;0.03;100.00;99657.16;10408089;28;20183;-63
2021/01/20 03:31:20;;;;;;;183.23;36.70;;;;;;;0.02;100.00;99650.19;10402559;28;20403;-62
2021/01/20 03:36:21;;;;;;;192.13;36.13;;;;;;;-0.03;100.00;99641.63;10357716;28;20712;-67
2021/01/20 03:41:21;;;;;;;224.57;38.27;;;;;;;0.03;100.00;99657.16;10406068;28;20210;-65
2021/01/20 03:46:22;;;;;;;163.97;33.30;;;;;;;0.00;100.00;99655.47;10390388;28;20192;-66
2021/01/20 03:51:23;;;;;;;173.87;33.80;;;;;;;0.00;100.00;99647.59;10374922;28;20180;-69
2021/01/20 03:56:23;;;;;;;196.23;33.40;;;;;;;-0.02;100.00;99653.84;10379290;28;20227;-63
2021/01/20 04:01:24;;;;;;;160.90;33.37;;;;;;;-0.04;100.00;99650.41;10384219;28;20204;-68
2021/01/20 04:06:24;;;;;;;205.13;35.03;;;;;;;-0.01;100.00;99645.91;10415576;28;20623;-69
2021/01/20 04:11:25;;;;;;;179.70;33.27;;;;;;;0.00;100.00;99631.03;10413205;28;20617;-66
2021/01/20 04:16:26;;;;;;;187.47;36.47;;;;;;;-0.03;100.00;99637.25;10405065;28;20171;-70
2021/01/20 04:21:27;;;;;;;189.20;35.10;;;;;;;-0.03;100.00;99646.88;10396577;28;20282;-71
2021/01/20 04:26:28;;;;;;;178.77;36.77;;;;;;;-0.07;100.00;99634.75;10409950;28;20191;-70
2021/01/20 04:31:29;;;;;;;180.27;34.10;;;;;;;-0.02;100.00;99635.47;10394656;28;20185;-67
2021/01/20 04:36:29;;;;;;;178.37;35.07;;;;;;;-0.06;100.00;99623.34;10414027;28;20268;-68
2021/01/20 04:41:30;;;;;;;214.07;35.10;;;;;;;-0.01;100.00;99629.31;10400042;28;20270;-60
2021/01/20 04:46:31;;;;;;;164.43;32.97;;;;;;;-0.05;100.00;99632.94;10400159;28;20185;-68
2021/01/20 04:51:33;;;;;;;174.77;32.03;;;;;;;-0.02;100.00;99622.38;10422933;28;20178;-72
2021/01/20 04:56:34;;;;;;;158.60;31.00;;;;;;;-0.03;100.00;99625.88;10405607;28;20176;-72
2021/01/20 05:01:34;;;;;;;171.63;34.77;;;;;;;-0.05;100.00;99622.47;10399447;28;20281;-68
2021/01/20 05:06:35;;;;;;;172.60;34.67;;;;;;;-0.06;100.00;99626.84;10415321;28;20263;-61
2021/01/20 05:11:45;;;;;;;168.57;32.73;;;;;;;-0.12;100.00;99626.19;10397634;28;20184;-71
2021/01/20 05:16:52;;;;;;;196.80;36.97;;;;;;;-0.08;100.00;99619.91;10413799;28;20179;-72
2021/01/20 05:22:13;;;;;;;202.70;39.67;;;;;;;-0.02;100.00;99632.84;10412652;28;20228;-67
2021/01/20 05:27:13;;;;;;;167.87;31.43;;;;;;;-0.01;100.00;99634.56;10396759;28;20500;-69
2021/01/20 05:32:15;;;;;;;184.00;36.60;;;;;;;-0.02;100.00;99638.09;10407522;28;20259;-70
2021/01/20 05:37:16;;;;;;;172.90;34.10;;;;;;;-0.01;100.00;99630.19;10417439;28;20835;-71
2021/01/20 05:42:16;;;;;;;168.70;34.77;;;;;;;-0.02;100.00;99638.09;10417584;28;20299;-71
2021/01/20 05:47:17;;;;;;;167.03;31.77;;;;;;;0.00;100.00;99644.16;10418226;28;20233;-70
2021/01/20 05:52:19;;;;;;;166.87;34.73;;;;;;;0.07;100.00;99664.03;10417645;28;20951;-70
2021/01/20 05:57:21;;;;;;;185.77;34.23;;;;;;;0.11;100.00;99646.44;10399928;28;20160;-70
2021/01/20 06:02:23;;;;;;;168.30;33.77;;;;;;;0.11;100.00;99644.66;10429096;28;20220;-69
2021/01/20 06:07:26;;;;;;;175.87;36.10;;;;;;;0.11;100.00;99639.41;10438694;28;20829;-62
2021/01/20 06:12:26;;;;;;;160.40;35.10;;;;;;;0.13;100.00;99647.22;10434707;28;20617;-67
2021/01/20 06:17:40;;;;;;;179.60;34.50;;;;;;;0.17;100.00;99644.44;10452042;28;20172;-67
2021/01/20 06:22:46;;;;;;;174.43;33.87;;;;;;;0.20;100.00;99644.34;10452366;28;20330;-69
2021/01/20 06:28:06;;;;;;;164.13;34.30;;;;;;;0.23;100.00;99649.50;10434663;28;20275;-65
2021/01/20 06:33:13;;;;;;;164.37;32.13;;;;;;;0.06;100.00;99616.84;10430405;28;20207;-61
2021/01/20 06:38:28;;;;;;;168.20;35.43;;;;;;;0.32;100.00;99645.72;10452099;28;20202;-72
2021/01/20 06:43:40;;;;;;;165.63;30.83;;;;;;;0.38;100.00;99647.25;10454614;28;20267;-56
2021/01/20 06:48:55;;;;;;;150.83;31.23;;;;;;;0.44;100.00;99647.06;10440591;28;20223;-55
2021/01/20 06:59:26;;;;;;;144.83;31.97;;;;;;;0.50;100.00;99646.84;10451557;28;20222;-58
2021/01/20 07:04:50;;;;;;;173.23;30.63;;;;;;;0.54;100.00;99649.31;10447639;28;20202;-55
2021/01/20 07:09:50;;;;;;;192.00;36.97;;;;;;;0.58;100.00;99650.94;10425207;28;20280;-69
2021/01/20 07:14:55;;;;;;;154.87;32.73;;;;;;;0.61;100.00;99649.94;10436269;28;20516;-64
2021/01/20 07:19:56;;;;;;;161.53;31.13;;;;;;;0.66;100.00;99654.16;10450187;28;20672;-57
2021/01/20 07:24:57;;;;;;;199.13;36.27;;;;;;;0.73;100.00;99660.88;10451347;28;20195;-70
2021/01/20 07:29:57;;;;;;;174.90;36.03;;;;;;;0.79;100.00;99654.56;10450009;28;20290;-55
2021/01/20 07:34:57;;;;;;;168.50;31.93;;;;;;;0.84;100.00;99647.41;10417211;28;20179;-61
2021/01/20 07:40:07;;;;;;;158.93;34.37;;;;;;;0.94;100.00;99646.16;10420827;28;20219;-60
2021/01/20 07:45:08;;;;;;;188.47;35.07;;;;;;;0.95;100.00;99637.38;10443411;28;20179;-68
2021/01/20 07:50:09;;;;;;;162.70;32.10;;;;;;;1.04;100.00;99659.81;10440937;28;20182;-58
2021/01/20 07:55:16;;;;;;;141.93;32.17;;;;;;;1.12;100.00;99660.38;10444735;28;20215;-64
2021/01/20 08:00:17;;;;;;;154.90;32.20;;;;;;;1.15;100.00;99656.78;10426559;28;20964;-58
2021/01/20 08:05:17;;;;;;;149.43;32.63;;;;;;;1.29;100.00;99667.66;10447435;28;20191;-57
2021/01/20 08:10:21;;;;;;;295.00;80.47;;;;;;;1.47;100.00;99666.97;10433429;28;20416;-57
2021/01/20 08:15:22;;;;;;;177.40;35.63;;;;;;;1.49;100.00;99674.78;10443075;28;20187;-58
2021/01/20 08:20:24;;;;;;;145.43;31.10;;;;;;;1.55;100.00;99688.59;10398465;28;20252;-59
2021/01/20 08:25:24;;;;;;;149.70;30.63;;;;;;;1.59;100.00;99684.03;10418411;28;20284;-59
2021/01/20 08:30:33;;;;;;;156.27;30.77;;;;;;;1.63;100.00;99681.25;10438086;28;20609;-59
2021/01/20 08:35:35;;;;;;;158.27;30.80;;;;;;;1.69;100.00;99691.53;10435616;28;20195;-59
2021/01/20 08:40:36;;;;;;;153.33;31.87;;;;;;;1.76;100.00;99693.03;10429614;28;20910;-61
2021/01/20 08:45:37;;;;;;;133.80;31.20;;;;;;;1.85;100.00;99696.19;10431110;28;20191;-63
2021/01/20 08:50:42;;;;;;;144.20;30.53;;;;;;;1.91;100.00;99691.56;10435549;28;20274;-65
2021/01/20 08:55:49;;;;;;;144.60;33.13;;;;;;;2.06;100.00;99700.63;10439620;28;20902;-66
2021/01/20 09:01:29;;;;;;;151.87;34.60;;;;;;;2.17;100.00;99701.06;10437676;28;20299;-66
2021/01/20 09:06:30;;;;;;;170.03;41.30;;;;;;;2.24;100.00;99714.84;10179566;29;20223;-64
2021/01/20 09:11:30;;;;;;;127.77;30.40;;;;;;;2.31;100.00;99714.50;10186293;29;20219;-60
2021/01/20 09:16:31;;;;;;;250.73;69.23;;;;;;;2.46;100.00;99710.41;10176023;29;21828;-66
2021/01/20 09:21:31;;;;;;;163.03;35.70;;;;;;;2.48;100.00;99717.34;10194014;28;21526;-65
2021/01/20 09:26:32;;;;;;;144.97;30.93;;;;;;;2.62;100.00;99711.50;10184317;29;21005;-65
2021/01/20 09:31:32;;;;;;;208.77;56.08;;;;;;;2.88;100.00;99713.91;10179846;29;20433;-66
2021/01/20 09:36:33;;;;;;;138.33;28.77;;;;;;;2.96;100.00;99697.75;10197782;29;20213;-61
2021/01/20 09:41:33;;;;;;;139.27;27.30;;;;;;;3.08;100.00;99702.50;10359121;28;20312;-60
2021/01/20 09:46:34;;;;;;;117.57;26.50;;;;;;;3.19;100.00;99699.38;10362611;28;20201;-63
2021/01/20 09:51:35;;;;;;;124.50;26.13;;;;;;;3.25;100.00;99693.84;10345209;28;20186;-66
2021/01/20 09:56:35;;;;;;;126.67;27.80;;;;;;;3.30;100.00;99689.22;10343528;28;20193;-66
2021/01/20 10:01:36;;;;;;;125.47;27.83;;;;;;;3.30;100.00;99685.72;10355038;28;20217;-67
2021/01/20 10:06:36;;;;;;;123.10;27.23;;;;;;;3.28;100.00;99671.75;10361597;28;20193;-67
2021/01/20 10:11:37;;;;;;;127.07;27.60;;;;;;;3.33;100.00;99682.94;10345344;28;20270;-66
2021/01/20 10:16:37;;;;;;;128.70;29.97;;;;;;;3.38;100.00;99675.69;10357381;28;20252;-62
2021/01/20 10:21:38;;;;;;;121.53;27.00;;;;;;;3.43;100.00;99676.34;10398829;28;20333;-63
2021/01/20 10:26:39;;;;;;;115.80;26.23;;;;;;;3.48;100.00;99679.63;10419781;28;20245;-57
2021/01/20 10:31:41;;;;;;;133.47;29.50;;;;;;;3.56;100.00;99680.13;10436480;28;20708;-61
2021/01/20 10:36:42;;;;;;;113.00;27.83;;;;;;;3.66;100.00;99670.84;10436363;28;20213;-63
2021/01/20 10:41:43;;;;;;;148.23;28.80;;;;;;;3.74;100.00;99668.75;10440432;28;20276;-63
2021/01/20 10:46:43;;;;;;;137.97;28.83;;;;;;;3.82;100.00;99665.72;10452215;28;20235;-64
2021/01/20 10:51:44;;;;;;;129.70;28.83;;;;;;;3.90;100.00;99663.56;10437023;28;20185;-60
2021/01/20 10:56:44;;;;;;;137.27;32.40;;;;;;;3.95;100.00;99656.31;10427843;28;20435;-58
2021/01/20 11:01:46;;;;;;;135.33;30.80;;;;;;;4.05;100.00;99662.84;10431581;28;20638;-61
2021/01/20 11:06:47;;;;;;;133.97;29.63;;;;;;;4.20;100.00;99655.97;10412206;28;20283;-59
2021/01/20 11:11:47;;;;;;;141.50;31.97;;;;;;;4.27;100.00;99649.44;10448303;28;20238;-58
2021/01/20 11:16:50;;;;;;;138.40;30.47;;;;;;;4.29;100.00;99650.25;10426305;28;20581;-64
2021/01/20 11:21:52;;;;;;;117.20;28.80;;;;;;;4.28;100.00;99640.59;10416107;28;20220;-59
2021/01/20 11:26:53;;;;;;;138.17;30.07;;;;;;;4.36;100.00;99635.78;10419967;28;20187;-60
2021/01/20 11:31:53;;;;;;;130.47;30.20;;;;;;;4.46;100.00;99631.78;10397258;28;20186;-62
2021/01/20 11:36:54;;;;;;;124.50;30.60;;;;;;;4.56;100.00;99611.88;10385207;28;20198;-65
2021/01/20 11:41:54;;;;;;;134.30;29.37;;;;;;;4.65;100.00;99606.13;10383899;28;20711;-66
2021/01/20 11:46:55;;;;;;;158.03;33.50;;;;;;;4.79;100.00;99623.06;10433967;28;20177;-65
2021/01/20 11:51:55;;;;;;;167.37;35.33;;;;;;;4.84;100.00;99621.88;10428397;28;20191;-66
2021/01/20 11:56:55;;;;;;;149.07;34.57;;;;;;;4.93;100.00;99625.84;10437527;28;20188;-64
2021/01/20 12:01:56;;;;;;;139.00;33.47;;;;;;;5.05;100.00;99612.81;10405535;28;20199;-61
2021/01/20 12:06:56;;;;;;;240.10;71.63;;;;;;;5.24;100.00;99591.53;10417277;28;21088;-64
2021/01/20 12:11:57;;;;;;;168.80;38.43;;;;;;;5.25;100.00;99587.09;10422869;28;20276;-66
2021/01/20 12:16:57;;;;;;;152.23;33.40;;;;;;;5.24;100.00;99590.66;10435919;28;20185;-67
2021/01/20 12:21:58;;;;;;;127.57;32.10;;;;;;;5.18;100.00;99589.22;10432449;28;20238;-70
2021/01/20 12:26:58;;;;;;;135.90;32.80;;;;;;;5.18;100.00;99589.22;10381703;28;20328;-66
2021/01/20 12:31:59;;;;;;;123.97;34.60;;;;;;;5.17;100.00;99589.31;10424014;28;20922;-71
2021/01/20 12:36:59;;;;;;;182.50;71.07;;;;;;;5.33;100.00;99583.09;10417737;28;20478;-73
2021/01/20 12:41:59;;;;;;;112.70;34.97;;;;;;;5.23;100.00;99579.25;10436515;28;20203;-68
2021/01/20 12:47:00;;;;;;;110.23;30.50;;;;;;;5.15;100.00;99573.53;10447424;28;20182;-62
2021/01/20 12:52:00;;;;;;;135.87;57.03;;;;;;;5.13;100.00;99556.88;10368661;28;20430;-69
2021/01/20 12:57:01;;;;;;;104.30;32.00;;;;;;;5.08;100.00;99570.34;10406538;28;20900;-76
2021/01/20 13:02:01;;;;;;;93.77;28.53;;;;;;;5.04;100.00;99560.03;10432802;28;20997;-69
2021/01/20 13:07:02;;;;;;;81.67;26.53;;;;;;;5.05;100.00;99559.09;10449544;28;20193;-69
2021/01/20 13:12:02;;;;;;;95.67;27.67;;;;;;;5.00;100.00;99569.03;10427046;28;21025;-68
2021/01/20 13:17:03;;;;;;;91.10;27.17;;;;;;;4.94;100.00;99569.38;10441986;28;20533;-68
2021/01/20 13:22:03;;;;;;;82.93;28.00;;;;;;;4.87;100.00;99581.22;10438046;28;20245;-71
2021/01/20 13:27:04;;;;;;;90.70;28.13;;;;;;;4.72;100.00;99578.44;10442559;28;20202;-70
2021/01/20 13:32:09;;;;;;;81.20;26.90;;;;;;;4.61;100.00;99578.13;10416861;28;20175;-68
2021/01/20 13:37:10;;;;;;;74.20;24.97;;;;;;;4.56;100.00;99580.16;10402682;28;20240;-70
2021/01/20 13:42:10;;;;;;;85.13;27.07;;;;;;;4.49;100.00;99578.75;10441548;28;20903;-63
2021/01/20 13:47:11;;;;;;;81.73;26.03;;;;;;;4.45;100.00;99582.50;10439485;28;20190;-71
2021/01/20 13:52:12;;;;;;;87.33;26.47;;;;;;;4.30;100.00;99562.16;10452764;28;20181;-71
2021/01/20 13:57:13;;;;;;;105.65;51.78;;;;;;;4.42;100.00;99577.38;10419649;28;20451;-67
2021/01/20 14:02:13;;;;;;;86.43;28.73;;;;;;;4.33;100.00;99580.50;10426187;28;20681;-68
2021/01/20 14:07:15;;;;;;;68.80;24.67;;;;;;;4.25;100.00;99575.59;10450729;28;20196;-65
2021/01/20 14:12:15;;;;;;;64.97;25.23;;;;;;;4.20;100.00;99587.31;10442187;28;20273;-66
2021/01/20 14:17:16;;;;;;;68.90;24.97;;;;;;;4.09;100.00;99568.53;10439965;28;20523;-66
2021/01/20 14:22:18;;;;;;;65.40;25.03;;;;;;;4.13;100.00;99583.25;10422576;28;20351;-65
2021/01/20 14:27:18;;;;;;;74.27;27.00;;;;;;;4.09;100.00;99573.81;10449546;28;20184;-65
2021/01/20 14:32:19;;;;;;;71.03;24.50;;;;;;;4.08;100.00;99574.72;10436730;28;20185;-66
2021/01/20 14:37:19;;;;;;;66.93;24.03;;;;;;;4.05;100.00;99574.88;10448167;28;20187;-61
2021/01/20 14:42:20;;;;;;;68.73;25.73;;;;;;;4.01;100.00;99570.66;10426070;28;20207;-61
2021/01/20 14:47:20;;;;;;;73.87;25.03;;;;;;;3.94;100.00;99568.34;10430209;28;20279;-62
2021/01/20 14:52:21;;;;;;;96.70;45.60;;;;;;;3.94;100.00;99570.97;10431301;28;20561;-64
2021/01/20 14:57:21;;;;;;;77.27;28.53;;;;;;;3.90;100.00;99579.97;10430285;28;20231;-63
2021/01/20 15:02:21;;;;;;;70.53;26.00;;;;;;;3.90;100.00;99579.13;10403001;28;20219;-64
2021/01/20 15:07:22;;;;;;;67.37;25.00;;;;;;;3.85;100.00;99568.81;10410569;28;20655;-62
2021/01/20 15:12:22;;;;;;;62.57;25.70;;;;;;;3.82;100.00;99587.41;10412679;28;20570;-62
2021/01/20 15:17:23;;;;;;;69.77;24.83;;;;;;;3.77;100.00;99589.41;10417211;28;20204;-62
2021/01/20 15:24:47;;;;;;;73.73;28.17;;;;;;;3.70;100.00;99582.72;10369168;28;20638;-58
2021/01/20 15:29:48;;;;;;;83.17;30.97;;;;;;;3.62;100.00;99595.44;10392963;28;20193;-60
2021/01/20 15:34:48;;;;;;;76.70;29.50;;;;;;;3.60;100.00;99598.16;10411380;28;20215;-57
2021/01/20 15:39:51;;;;;;;87.30;31.03;;;;;;;3.63;100.00;99581.28;10406454;28;20588;-57
2021/01/20 15:44:51;;;;;;;91.40;30.47;;;;;;;3.65;100.00;99589.13;10411898;28;20231;-61
2021/01/20 15:49:53;;;;;;;79.67;32.17;;;;;;;3.62;100.00;99584.88;10395564;28;20243;-59
2021/01/20 15:54:53;;;;;;;92.53;31.47;;;;;;;3.56;100.00;99585.16;10405780;28;20196;-61
2021/01/20 15:59:57;;;;;;;74.83;27.60;;;;;;;3.60;100.00;99589.38;10407642;28;20231;-63
2021/01/20 16:04:58;;;;;;;75.60;29.93;;;;;;;3.59;100.00;99595.59;10426660;28;20287;-61
2021/01/20 16:09:59;;;;;;;82.23;31.10;;;;;;;3.52;100.00;99578.31;10402762;28;20184;-59
2021/01/20 16:15:00;;;;;;;91.57;33.70;;;;;;;3.65;100.00;99594.41;10399791;28;20255;-64
2021/01/20 16:20:00;;;;;;;96.67;35.77;;;;;;;3.64;100.00;99593.56;10406115;28;20243;-59
2021/01/20 16:25:01;;;;;;;92.33;35.47;;;;;;;3.65;100.00;99594.41;10413499;28;20180;-56
2021/01/20 16:30:08;;;;;;;94.43;35.33;;;;;;;3.60;100.00;99602.56;10405524;28;20918;-56
2021/01/20 16:35:11;;;;;;;95.57;35.87;;;;;;;3.55;100.00;99594.84;10378189;28;20189;-57
2021/01/20 16:40:13;;;;;;;82.90;32.90;;;;;;;3.47;100.00;99601.44;10373566;28;20239;-59
2021/01/20 16:45:13;;;;;;;89.00;33.60;;;;;;;3.40;100.00;99594.72;10385012;28;20216;-60
2021/01/20 16:50:14;;;;;;;83.87;32.73;;;;;;;3.38;100.00;99599.22;10379556;28;20597;-57
2021/01/20 16:55:14;;;;;;;86.17;31.10;;;;;;;3.38;100.00;99597.41;10378984;28;20733;-61
2021/01/20 17:00:16;;;;;;;86.90;33.07;;;;;;;3.40;100.00;99589.44;10365196;28;20210;-61
2021/01/20 17:05:17;;;;;;;81.70;31.67;;;;;;;3.32;100.00;99591.59;10381938;28;20188;-67
2021/01/20 17:10:21;;;;;;;89.87;32.10;;;;;;;3.32;100.00;99607.41;10376964;28;20181;-70
2021/01/20 17:15:22;;;;;;;84.67;31.17;;;;;;;3.25;100.00;99612.97;10406732;28;20235;-64
2021/01/20 17:20:22;;;;;;;83.33;33.20;;;;;;;3.15;100.00;99611.66;10397027;28;20302;-62
2021/01/20 17:25:23;;;;;;;68.90;29.47;;;;;;;3.04;100.00;99598.13;10423229;28;20784;-68
2021/01/20 17:30:23;;;;;;;77.57;28.13;;;;;;;2.92;100.00;99596.03;10449748;28;20634;-67
2021/01/20 17:35:24;;;;;;;65.00;27.57;;;;;;;2.83;100.00;99604.34;10408621;28;20190;-62
2021/01/20 17:40:24;;;;;;;68.80;27.53;;;;;;;2.73;100.00;99595.16;10389802;28;20220;-67
2021/01/20 17:45:25;;;;;;;62.93;25.77;;;;;;;2.78;100.00;99595.78;10366516;28;20220;-63
2021/01/20 17:50:25;;;;;;;70.77;27.07;;;;;;;2.78;100.00;99598.41;10381191;28;20613;-60
2021/01/20 17:55:28;;;;;;;72.20;27.57;;;;;;;2.79;100.00;99592.22;10384281;28;20599;-60
2021/01/20 18:00:29;;;;;;;62.87;26.03;;;;;;;2.83;100.00;99594.66;10383303;28;20216;-64
2021/01/20 18:05:29;;;;;;;72.60;27.80;;;;;;;2.85;100.00;99602.50;10383283;28;20195;-58
2021/01/20 18:10:30;;;;;;;65.23;26.00;;;;;;;2.86;100.00;99602.44;10382919;28;20258;-66
2021/01/20 18:15:30;;;;;;;69.97;26.27;;;;;;;2.88;100.00;99597.97;10386501;28;20212;-59
2021/01/20 18:20:31;;;;;;;57.40;24.23;;;;;;;2.93;100.00;99599.53;10380520;28;20228;-61
2021/01/20 18:25:31;;;;;;;64.40;24.30;;;;;;;2.97;100.00;99604.59;10388068;28;20184;-62
2021/01/20 18:30:31;;;;;;;62.03;23.17;;;;;;;3.01;100.00;99607.97;10382610;28;20187;-66
2021/01/20 18:35:32;;;;;;;57.67;22.63;;;;;;;3.05;100.00;99599.81;10385754;28;20172;-67
2021/01/20 18:40:32;;;;;;;49.53;21.63;;;;;;;3.06;100.00;99591.00;10381558;28;20672;-66
2021/01/20 18:45:33;;;;;;;46.37;20.17;;;;;;;3.07;100.00;99587.44;10386375;28;20200;-70
2021/01/20 18:50:33;;;;;;;57.60;33.28;;;;;;;3.19;100.00;99584.25;10375143;28;20826;-64
2021/01/20 18:55:34;;;;;;;46.23;20.63;;;;;;;3.11;100.00;99583.75;10379248;28;20585;-63
2021/01/20 19:00:35;;;;;;;42.20;19.50;;;;;;;3.13;100.00;99581.91;10368430;28;20204;-65
2021/01/20 19:05:35;;;;;;;45.17;19.83;;;;;;;3.14;100.00;99586.22;10365517;28;20200;-62
2021/01/20 19:10:35;;;;;;;42.37;18.10;;;;;;;3.12;100.00;99579.34;10367338;28;20530;-63
2021/01/20 19:15:39;;;;;;;38.13;18.20;;;;;;;3.05;100.00;99570.84;10377373;28;20216;-68
2021/01/20 19:20:40;;;;;;;42.20;17.80;;;;;;;2.98;100.00;99558.88;10374136;28;20256;-67
2021/01/20 19:25:41;;;;;;;38.13;17.57;;;;;;;3.00;100.00;99572.84;10364286;28;20197;-74
2021/01/20 19:30:43;;;;;;;36.43;17.40;;;;;;;2.95;100.00;99566.91;10361321;28;20736;-69
2021/01/20 19:35:43;;;;;;;37.50;15.50;;;;;;;2.95;100.00;99572.19;10382188;28;20169;-68
2021/01/20 19:40:44;;;;;;;34.80;14.67;;;;;;;2.95;100.00;99572.19;10405192;28;20653;-67
2021/01/20 19:45:45;;;;;;;26.70;13.53;;;;;;;2.82;100.00;99560.47;10405144;28;20181;-69
2021/01/20 19:50:45;;;;;;;28.50;13.20;;;;;;;2.83;100.00;99578.84;10388990;28;20239;-69
2021/01/20 19:55:46;;;;;;;32.27;14.17;;;;;;;2.71;100.00;99574.13;10397532;28;20658;-69
2021/01/20 20:00:46;;;;;;;28.63;13.77;;;;;;;2.63;100.00;99571.00;10403379;28;20207;-67
2021/01/20 20:05:47;;;;;;;30.67;13.27;;;;;;;2.50;100.00;99569.81;10400003;28;20283;-66
2021/01/20 20:10:47;;;;;;;28.07;14.10;;;;;;;2.42;100.00;99577.16;10377282;28;20196;-68
2021/01/20 20:15:53;;;;;;;31.80;14.33;;;;;;;2.28;100.00;99567.25;10366422;28;20196;-68
2021/01/20 20:20:54;;;;;;;36.23;14.60;;;;;;;2.15;100.00;99552.91;10372775;28;20229;-59
2021/01/20 20:25:55;;;;;;;34.70;15.90;;;;;;;2.03;100.00;99554.28;10399500;28;20191;-59
2021/01/20 20:30:56;;;;;;;36.10;15.97;;;;;;;1.92;100.00;99561.75;10412482;28;20180;-62
2021/01/20 20:35:56;;;;;;;34.40;14.60;;;;;;;1.79;100.00;99556.13;10395978;28;20584;-64
2021/01/20 20:40:57;;;;;;;29.63;12.37;;;;;;;1.71;100.00;99554.72;10405459;28;20646;-66
2021/01/20 20:45:57;;;;;;;27.13;12.10;;;;;;;1.61;100.00;99559.50;10411220;28;20635;-61
2021/01/20 20:50:57;;;;;;;25.47;13.17;;;;;;;1.49;100.00;99562.63;10411394;28;20180;-61
2021/01/20 20:55:58;;;;;;;26.83;12.87;;;;;;;1.40;100.00;99578.75;10403609;28;20212;-61
2021/01/20 21:00:59;;;;;;;36.20;13.80;;;;;;;1.31;100.00;99572.09;10397644;28;20215;-61
2021/01/20 21:06:00;;;;;;;31.10;12.33;;;;;;;1.34;100.00;99573.72;10401337;28;20180;-57
2021/01/20 21:11:00;;;;;;;34.10;13.73;;;;;;;1.36;100.00;99571.88;10399469;28;20185;-57
2021/01/20 21:16:01;;;;;;;29.57;12.90;;;;;;;1.38;100.00;99575.31;10410299;28;20610;-55
2021/01/20 21:21:01;;;;;;;29.10;13.70;;;;;;;1.46;100.00;99581.13;10393691;28;20307;-55
2021/01/20 21:26:02;;;;;;;31.07;14.17;;;;;;;1.53;100.00;99585.25;10428646;28;20982;-56
2021/01/20 21:31:03;;;;;;;25.53;12.63;;;;;;;1.55;100.00;99593.06;10450473;28;20168;-55
2021/01/20 21:36:03;;;;;;;27.33;12.63;;;;;;;1.51;100.00;99592.34;10450540;28;20188;-55
2021/01/20 21:41:04;;;;;;;26.90;12.63;;;;;;;1.53;100.00;99587.88;10442232;28;20254;-56
2021/01/20 21:46:05;;;;;;;35.13;14.47;;;;;;;1.55;100.00;99579.94;10437307;28;20176;-55
2021/01/20 21:51:06;;;;;;;34.57;15.47;;;;;;;1.51;100.00;99573.94;10411184;28;20181;-55
2021/01/20 21:56:06;;;;;;;35.97;15.37;;;;;;;1.58;100.00;99567.50;10394076;28;20189;-56
2021/01/20 22:01:07;;;;;;;43.03;16.73;;;;;;;1.64;100.00;99562.00;10371247;28;20204;-56
2021/01/20 22:06:07;;;;;;;34.43;14.87;;;;;;;1.67;100.00;99567.16;10392573;28;20184;-56
2021/01/20 22:11:08;;;;;;;35.40;14.40;;;;;;;1.67;100.00;99576.81;10391399;28;20185;-56
2021/01/20 22:16:08;;;;;;;33.80;15.20;;;;;;;1.72;100.00;99574.84;10368219;28;20185;-53
2021/01/20 22:21:08;;;;;;;29.13;13.33;;;;;;;1.80;100.00;99578.91;10382009;28;20589;-54
2021/01/20 22:26:09;;;;;;;34.33;14.20;;;;;;;1.92;100.00;99576.69;10357700;28;20235;-55
2021/01/20 22:31:09;;;;;;;36.57;15.80;;;;;;;2.00;100.00;99574.59;10353162;28;20233;-56
2021/01/20 22:36:10;;;;;;;38.60;15.73;;;;;;;2.10;100.00;99575.91;10366607;28;20180;-55
2021/01/20 22:41:10;;;;;;;39.37;14.47;;;;;;;2.21;100.00;99578.94;10366361;28;20209;-54
2021/01/20 22:46:11;;;;;;;39.37;15.20;;;;;;;2.31;100.00;99569.72;10366326;28;20173;-55
2021/01/20 22:51:11;;;;;;;34.77;14.27;;;;;;;2.34;100.00;99563.50;10349733;28;20184;-55